Time;durP1;ratioP1;P1;durP2;ratioP2;P2;SDS_P1;SDS_P2;PMS_P1;PMS_P2;Temp;Humidity;BMP_temperature;BMP_pressure;BME280_temperature;BME280_humidity;BME280_pressure;Samples;Min_cycle;Max_cycle;Signal;HPM_P1;HPM_P2
2022/07/28 00:00:04;;;;;;;15.82;6.68;;;;;;;11.72;100.00;101173.03;5027573;28;20546;-77
2022/07/28 00:02:30;;;;;;;13.27;6.20;;;;;;;11.64;100.00;101161.28;5026516;28;20048;-79
2022/07/28 00:04:55;;;;;;;13.43;6.22;;;;;;;11.62;100.00;101168.69;5034559;28;20433;-77
2022/07/28 00:07:21;;;;;;;12.20;7.05;;;;;;;11.57;100.00;101164.84;5032116;28;20768;-76
2022/07/28 00:09:47;;;;;;;12.10;6.13;;;;;;;11.55;100.00;101156.06;5023264;28;20122;-77
2022/07/28 00:12:13;;;;;;;12.45;6.30;;;;;;;11.50;100.00;101150.38;5030649;28;20475;-77
2022/07/28 00:14:41;;;;;;;11.85;6.28;;;;;;;11.45;100.00;101153.56;5037869;28;20028;-78
2022/07/28 00:17:07;;;;;;;15.18;6.43;;;;;;;11.44;100.00;101150.03;5042866;28;20032;-76
2022/07/28 00:19:32;;;;;;;19.52;7.05;;;;;;;11.46;100.00;101155.28;5020815;28;20098;-78
2022/07/28 00:21:58;;;;;;;10.23;5.78;;;;;;;11.42;100.00;101151.22;5011633;28;20048;-77
2022/07/28 00:24:24;;;;;;;13.70;6.80;;;;;;;11.43;100.00;101153.75;5042059;28;20394;-76
2022/07/28 00:26:50;;;;;;;15.93;7.25;;;;;;;11.41;100.00;101149.56;5055325;28;20033;-77
2022/07/28 00:29:16;;;;;;;10.18;5.55;;;;;;;11.42;100.00;101145.84;5029561;28;20561;-77
2022/07/28 00:31:42;;;;;;;13.82;6.63;;;;;;;11.28;100.00;101128.53;5055683;28;20024;-77
2022/07/28 00:34:07;;;;;;;10.93;6.15;;;;;;;11.35;100.00;101143.00;5028935;28;20498;-77
2022/07/28 00:36:33;;;;;;;13.07;6.85;;;;;;;11.36;100.00;101141.97;5040509;28;20078;-77
2022/07/28 00:38:59;;;;;;;16.33;7.03;;;;;;;11.30;100.00;101131.91;5035179;28;20032;-78
2022/07/28 00:41:30;;;;;;;14.00;6.18;;;;;;;11.29;100.00;101132.06;5030756;28;20086;-76
2022/07/28 00:43:56;;;;;;;15.38;7.43;;;;;;;11.29;100.00;101140.16;5011838;28;20130;-76
2022/07/28 00:46:22;;;;;;;15.05;8.05;;;;;;;11.29;100.00;101137.47;5014686;28;20033;-78
2022/07/28 00:48:51;;;;;;;16.30;6.97;;;;;;;11.26;100.00;101127.03;5027913;28;20045;-76
2022/07/28 00:51:18;;;;;;;14.05;7.00;;;;;;;11.17;100.00;101110.91;5045977;28;20027;-76
2022/07/28 00:53:44;;;;;;;11.93;6.28;;;;;;;11.24;100.00;101116.44;5012011;28;20044;-76
2022/07/28 00:56:10;;;;;;;13.02;6.53;;;;;;;11.18;100.00;101117.13;5044696;28;20441;-76
2022/07/28 00:58:37;;;;;;;12.02;6.20;;;;;;;11.18;100.00;101119.81;5015519;28;20029;-76
2022/07/28 01:01:06;;;;;;;13.95;6.05;;;;;;;11.23;100.00;101120.97;5028213;28;20466;-77
2022/07/28 01:03:34;;;;;;;14.00;7.28;;;;;;;11.21;100.00;101114.09;5034277;28;20128;-76
2022/07/28 01:06:33;;;;;;;13.52;6.50;;;;;;;11.19;100.00;101119.66;5026782;28;20111;-76
2022/07/28 01:09:25;;;;;;;12.93;6.15;;;;;;;11.15;100.00;101120.16;5012565;28;20040;-76
2022/07/28 01:12:05;;;;;;;10.70;6.07;;;;;;;11.08;100.00;101106.53;5066477;28;20032;-76
2022/07/28 01:14:31;;;;;;;9.70;5.80;;;;;;;11.06;100.00;101119.34;5017288;28;20032;-76
2022/07/28 01:17:09;;;;;;;14.25;6.45;;;;;;;10.98;100.00;101106.72;5064142;28;20024;-76
2022/07/28 01:19:41;;;;;;;9.48;5.88;;;;;;;11.03;100.00;101108.88;5037202;28;20471;-75
2022/07/28 01:22:10;;;;;;;10.10;5.15;;;;;;;11.00;100.00;101103.84;5045056;28;20493;-76
2022/07/28 01:24:47;;;;;;;10.10;5.10;;;;;;;10.99;100.00;101113.78;5045838;28;20039;-77
2022/07/28 01:27:25;;;;;;;10.55;4.93;;;;;;;10.94;100.00;101099.16;5030713;28;20050;-76
2022/07/28 01:30:04;;;;;;;9.98;4.97;;;;;;;10.92;100.00;101102.00;5020644;28;20040;-76
2022/07/28 01:32:52;;;;;;;8.15;4.68;;;;;;;10.97;100.00;101104.19;5068428;28;20044;-75
2022/07/28 01:35:22;;;;;;;7.90;5.20;;;;;;;11.00;100.00;101103.84;5039291;28;20532;-77
2022/07/28 01:37:51;;;;;;;9.00;4.50;;;;;;;10.93;100.00;101092.09;5057479;28;20037;-77
2022/07/28 01:40:19;;;;;;;8.82;4.70;;;;;;;10.91;100.00;101084.19;5047999;28;20064;-75
2022/07/28 01:42:48;;;;;;;8.65;4.35;;;;;;;11.00;100.00;101090.41;5017947;28;20032;-75
2022/07/28 01:45:15;;;;;;;8.50;4.38;;;;;;;11.08;100.00;101097.63;5033461;28;20028;-78
2022/07/28 01:47:44;;;;;;;6.55;4.13;;;;;;;11.00;100.00;101077.78;5036047;28;20041;-77
2022/07/28 01:50:11;;;;;;;6.95;4.45;;;;;;;11.13;100.00;101092.56;5028675;28;20037;-77
2022/07/28 01:52:40;;;;;;;8.15;4.47;;;;;;;11.13;100.00;101087.19;5048361;28;20039;-77
2022/07/28 01:55:06;;;;;;;8.90;4.45;;;;;;;11.15;100.00;101085.16;5037707;28;20428;-78
2022/07/28 01:57:33;;;;;;;6.07;4.07;;;;;;;11.23;100.00;101093.22;5024825;28;20051;-77
2022/07/28 02:00:00;;;;;;;6.22;4.03;;;;;;;11.27;100.00;101094.53;5029478;28;20056;-77
2022/07/28 02:02:26;;;;;;;6.25;3.88;;;;;;;11.14;100.00;101064.63;5020642;28;20063;-79
2022/07/28 02:04:54;;;;;;;5.90;3.95;;;;;;;11.13;100.00;101054.88;5072700;28;20394;-77
2022/07/28 02:07:21;;;;;;;7.43;3.97;;;;;;;11.30;100.00;101080.75;5015632;28;20490;-76
2022/07/28 02:09:47;;;;;;;5.13;3.30;;;;;;;11.35;100.00;101081.09;5032673;28;20127;-77
2022/07/28 02:12:16;;;;;;;7.78;3.15;;;;;;;11.38;100.00;101085.28;5040740;28;20159;-76
2022/07/28 02:14:42;;;;;;;6.93;3.78;;;;;;;11.39;100.00;101077.03;5020584;28;20044;-76
2022/07/28 02:17:12;;;;;;;6.88;3.53;;;;;;;11.42;100.00;101076.66;5049906;28;20032;-76
2022/07/28 02:19:41;;;;;;;5.65;3.70;;;;;;;11.43;100.00;101072.97;5032474;28;20040;-76
2022/07/28 02:22:08;;;;;;;5.53;3.80;;;;;;;11.40;100.00;101065.22;5021509;28;20127;-76
2022/07/28 02:24:34;;;;;;;8.70;4.15;;;;;;;11.31;100.00;101058.19;5037611;28;20029;-76
2022/07/28 02:27:27;;;;;;;6.57;3.70;;;;;;;11.16;100.00;101027.63;5028242;28;20363;-77
2022/07/28 02:30:02;;;;;;;6.25;3.90;;;;;;;11.25;100.00;101042.75;5034639;28;20048;-78
2022/07/28 02:32:48;;;;;;;3.90;3.13;;;;;;;11.35;100.00;101070.31;5051339;28;20173;-75
2022/07/28 02:35:32;;;;;;;6.30;3.10;;;;;;;11.35;100.00;101064.06;5040865;28;20032;-76
2022/07/28 02:38:05;;;;;;;5.05;3.42;;;;;;;11.35;100.00;101051.47;5063956;28;20033;-76
2022/07/28 02:40:35;;;;;;;7.57;3.88;;;;;;;11.39;100.00;101062.72;5045155;28;20046;-76
2022/07/28 02:43:03;;;;;;;4.68;3.05;;;;;;;11.31;100.00;101043.91;5036296;28;20717;-76
2022/07/28 02:45:30;;;;;;;11.35;3.17;;;;;;;11.37;100.00;101053.97;5049949;28;20378;-76
2022/07/28 02:48:00;;;;;;;5.72;3.33;;;;;;;11.26;100.00;101030.97;5035915;28;20429;-76
2022/07/28 02:50:27;;;;;;;6.07;3.20;;;;;;;11.34;100.00;101047.09;5022566;28;20028;-76
2022/07/28 02:52:59;;;;;;;6.00;3.25;;;;;;;11.30;100.00;101029.63;5042790;28;20128;-76
2022/07/28 02:55:25;;;;;;;5.68;3.03;;;;;;;11.36;100.00;101039.69;5038547;28;20032;-76
2022/07/28 02:57:52;;;;;;;5.85;3.17;;;;;;;11.37;100.00;101045.91;5049404;28;20509;-76
2022/07/28 03:00:17;;;;;;;4.00;3.28;;;;;;;11.40;100.00;101045.53;5029563;28;20031;-75
2022/07/28 03:02:45;;;;;;;4.32;3.30;;;;;;;11.37;100.00;101040.50;5043922;28;20036;-74
2022/07/28 03:05:13;;;;;;;5.82;3.90;;;;;;;11.39;100.00;101044.72;5035578;28;20036;-75
2022/07/28 03:07:40;;;;;;;5.18;3.42;;;;;;;11.38;100.00;101037.66;5030712;28;20101;-75
2022/07/28 03:10:06;;;;;;;6.70;3.53;;;;;;;11.25;100.00;101015.00;5029491;28;20037;-75
2022/07/28 03:12:32;;;;;;;4.45;3.28;;;;;;;11.37;100.00;101040.50;5020436;28;20032;-75
2022/07/28 03:14:58;;;;;;;5.18;3.45;;;;;;;11.34;100.00;101038.16;5014426;28;20425;-75
2022/07/28 03:17:23;;;;;;;6.38;3.22;;;;;;;11.31;100.00;101035.84;5048968;28;20039;-75
2022/07/28 03:19:49;;;;;;;6.35;3.53;;;;;;;11.23;100.00;101025.94;5065562;28;20479;-75
2022/07/28 03:22:14;;;;;;;5.57;3.70;;;;;;;11.24;100.00;101030.28;5041391;28;20024;-75
2022/07/28 03:24:48;;;;;;;5.20;3.55;;;;;;;11.22;100.00;101027.78;5053861;28;20048;-75
2022/07/28 03:27:19;;;;;;;;;;;;;;;11.27;100.00;101029.94;5046486;28;20139;-75
2022/07/28 03:29:49;;;;;;;5.65;3.45;;;;;;;11.25;100.00;101025.78;5017947;28;19938;-75
2022/07/28 03:32:18;;;;;;;6.65;4.03;;;;;;;11.28;100.00;101031.63;5029910;28;20093;-75
2022/07/28 03:34:44;;;;;;;5.68;3.38;;;;;;;11.26;100.00;101027.44;5034921;28;20138;-76
2022/07/28 03:37:12;;;;;;;6.25;4.10;;;;;;;11.30;100.00;101037.69;5052408;28;20416;-75
2022/07/28 03:39:44;;;;;;;7.03;3.70;;;;;;;11.26;100.00;101030.97;5041286;28;20029;-75
2022/07/28 03:42:10;;;;;;;6.70;3.70;;;;;;;11.24;100.00;101041.06;5026954;28;20176;-75
2022/07/28 03:44:38;;;;;;;5.13;3.92;;;;;;;11.22;100.00;101043.09;5017373;28;20054;-76
2022/07/28 03:47:04;;;;;;;5.78;3.88;;;;;;;11.18;100.00;101039.06;5037514;28;20043;-75
2022/07/28 03:49:29;;;;;;;5.05;3.83;;;;;;;11.17;100.00;101043.63;5029656;28;20497;-76
2022/07/28 03:51:55;;;;;;;7.80;3.58;;;;;;;11.17;100.00;101040.09;5028768;28;20123;-76
2022/07/28 03:54:20;;;;;;;6.30;3.70;;;;;;;11.15;100.00;101039.41;5033448;28;20028;-76
2022/07/28 03:56:46;;;;;;;7.70;4.03;;;;;;;11.14;100.00;101033.19;5031962;28;20185;-75
2022/07/28 03:59:12;;;;;;;6.13;3.92;;;;;;;11.16;100.00;101035.69;5064203;28;20028;-74
2022/07/28 04:01:38;;;;;;;6.18;4.35;;;;;;;11.20;100.00;101037.03;5017799;28;20501;-75
2022/07/28 04:04:04;;;;;;;7.13;4.25;;;;;;;11.20;100.00;101031.66;5026113;28;20028;-77
2022/07/28 04:06:30;;;;;;;7.13;3.83;;;;;;;11.21;100.00;101026.09;5015077;28;20537;-76
2022/07/28 04:08:55;;;;;;;5.55;3.97;;;;;;;11.26;100.00;101040.91;5055985;28;20081;-77
2022/07/28 04:11:22;;;;;;;5.25;3.63;;;;;;;11.16;100.00;101017.69;5030122;28;20033;-76
2022/07/28 04:13:47;;;;;;;7.82;4.30;;;;;;;11.30;100.00;101037.69;5011455;28;20070;-76
2022/07/28 04:16:13;;;;;;;6.40;3.88;;;;;;;11.24;100.00;101032.97;5013995;28;20127;-77
2022/07/28 04:18:42;;;;;;;8.20;4.18;;;;;;;11.18;100.00;101031.00;5047233;28;20024;-76
2022/07/28 04:21:10;;;;;;;6.78;4.10;;;;;;;11.23;100.00;101040.22;5008764;28;20052;-76
2022/07/28 04:23:35;;;;;;;6.63;4.18;;;;;;;11.22;100.00;101043.09;5013703;28;20474;-76
2022/07/28 04:26:03;;;;;;;5.75;3.90;;;;;;;11.18;100.00;101039.06;5050022;28;20414;-76
2022/07/28 04:28:28;;;;;;;5.93;4.03;;;;;;;11.15;100.00;101037.56;5030041;28;20044;-76
2022/07/28 04:30:56;;;;;;;7.30;4.07;;;;;;;11.18;100.00;101041.75;5039470;28;20117;-77
2022/07/28 04:33:23;;;;;;;7.40;4.25;;;;;;;11.18;100.00;101031.81;5008091;28;20116;-76
2022/07/28 04:35:51;;;;;;;8.35;4.75;;;;;;;11.20;100.00;101042.44;5033168;28;20135;-76
2022/07/28 04:38:19;;;;;;;7.35;4.32;;;;;;;11.21;100.00;101038.72;5052457;28;20111;-76
2022/07/28 04:40:46;;;;;;;5.90;4.15;;;;;;;11.18;100.00;101033.69;5047675;28;20166;-76
2022/07/28 04:43:12;;;;;;;6.13;4.30;;;;;;;11.08;100.00;101019.59;5051845;28;20054;-76
2022/07/28 04:45:38;;;;;;;8.57;4.45;;;;;;;11.16;100.00;101039.22;5056473;28;20024;-77
2022/07/28 04:48:04;;;;;;;7.53;4.13;;;;;;;11.13;100.00;101031.50;5022091;28;20135;-77
2022/07/28 04:50:30;;;;;;;5.43;3.72;;;;;;;11.10;100.00;101031.03;5044373;28;20417;-77
2022/07/28 04:52:57;;;;;;;6.53;4.55;;;;;;;11.06;100.00;101030.53;5031374;28;20020;-77
2022/07/28 04:55:23;;;;;;;7.97;4.40;;;;;;;10.78;100.00;100979.81;5032164;28;20029;-77
2022/07/28 04:57:49;;;;;;;7.18;4.43;;;;;;;11.09;100.00;101035.56;5047653;28;20350;-76
2022/07/28 05:00:15;;;;;;;3.83;2.92;;;;;;;11.08;100.00;101024.97;5060382;28;20447;-76
2022/07/28 05:02:42;;;;;;;8.00;4.32;;;;;;;11.13;100.00;101027.97;5011070;28;20076;-78
2022/07/28 05:05:07;;;;;;;7.55;4.65;;;;;;;11.04;100.00;100997.56;5044817;28;20024;-77
2022/07/28 05:07:33;;;;;;;6.50;4.53;;;;;;;11.23;100.00;101029.47;5026808;28;20090;-77
2022/07/28 05:09:59;;;;;;;6.13;4.00;;;;;;;11.27;100.00;101027.25;5046598;28;20687;-77
2022/07/28 05:12:24;;;;;;;9.88;5.07;;;;;;;11.14;100.00;100997.34;5034865;28;20479;-77
2022/07/28 05:14:50;;;;;;;6.72;4.55;;;;;;;11.28;100.00;101022.72;5052615;28;20037;-77
2022/07/28 05:17:16;;;;;;;7.80;4.38;;;;;;;11.30;100.00;101026.06;5050714;28;20040;-79
2022/07/28 05:19:41;;;;;;;5.88;3.92;;;;;;;11.33;100.00;101023.88;5060239;28;20037;-78
2022/07/28 05:22:07;;;;;;;8.25;4.65;;;;;;;11.36;100.00;101017.31;5063855;28;20052;-77
2022/07/28 05:24:32;;;;;;;9.18;4.50;;;;;;;11.43;100.00;101019.13;5012332;28;20044;-76
2022/07/28 05:26:58;;;;;;;7.07;4.60;;;;;;;11.52;100.00;101016.41;5058545;28;20032;-78
2022/07/28 05:29:24;;;;;;;7.30;4.32;;;;;;;11.76;100.00;101028.91;5036134;28;20024;-77
2022/07/28 05:31:49;;;;;;;4.57;3.00;;;;;;;11.93;100.00;101035.03;5045835;28;20158;-77
2022/07/28 05:34:15;;;;;;;7.43;4.30;;;;;;;12.13;100.00;101027.34;5046394;28;20036;-74
2022/07/28 05:36:41;;;;;;;7.15;4.00;;;;;;;12.25;100.00;101018.66;5052676;28;20051;-78
2022/07/28 05:39:06;;;;;;;6.22;4.18;;;;;;;12.48;100.00;101032.09;5052608;28;20028;-75
2022/07/28 05:41:32;;;;;;;6.47;4.43;;;;;;;12.70;100.00;101025.03;5032472;28;20028;-77
2022/07/28 05:44:00;;;;;;;5.35;4.18;;;;;;;12.91;100.00;101013.50;5024568;28;20029;-77
2022/07/28 05:46:26;;;;;;;6.50;4.35;;;;;;;13.23;100.00;101024.97;5017761;28;20414;-76
2022/07/28 05:48:52;;;;;;;5.05;3.30;;;;;;;13.59;100.00;101014.22;5006986;28;20392;-76
2022/07/28 05:51:17;;;;;;;6.03;3.67;;;;;;;13.84;100.00;101003.09;5039010;28;20090;-76
2022/07/28 05:53:43;;;;;;;5.97;4.38;;;;;;;14.48;100.00;101022.03;5041032;28;20572;-76
2022/07/28 05:56:09;;;;;;;6.30;3.83;;;;;;;14.77;100.00;101022.91;5062612;28;20073;-75
2022/07/28 05:58:34;;;;;;;6.00;3.08;;;;;;;15.43;94.60;101022.47;5022122;28;20418;-77
2022/07/28 06:01:01;;;;;;;4.55;3.53;;;;;;;17.00;85.21;101015.03;5040735;28;20530;-76
2022/07/28 06:03:30;;;;;;;5.22;3.47;;;;;;;18.20;79.35;101020.81;5036872;28;20032;-78
2022/07/28 06:05:57;;;;;;;4.60;3.17;;;;;;;19.17;72.66;101021.25;5010033;28;20032;-77
2022/07/28 06:08:25;;;;;;;5.03;3.20;;;;;;;19.98;69.81;101020.06;5031893;28;20032;-77
2022/07/28 06:13:47;;;;;;;6.00;3.60;;;;;;;21.28;63.80;100976.44;5026174;28;20044;-76
2022/07/28 06:16:13;;;;;;;4.38;2.95;;;;;;;21.19;62.39;101010.69;5023097;28;20421;-76
2022/07/28 06:18:39;;;;;;;5.03;2.70;;;;;;;21.13;58.43;101008.94;5021830;28;20035;-75
2022/07/28 06:21:05;;;;;;;3.85;2.72;;;;;;;20.02;60.48;101017.69;5041266;28;20094;-76
2022/07/28 06:23:30;;;;;;;6.97;3.40;;;;;;;18.80;66.96;101009.47;5058063;28;20037;-76
2022/07/28 06:25:56;;;;;;;5.32;3.20;;;;;;;18.02;67.28;101002.53;5058880;28;20041;-78
2022/07/28 06:28:22;;;;;;;4.93;3.50;;;;;;;17.40;73.43;100999.44;5037099;28;20047;-75
2022/07/28 06:30:48;;;;;;;5.82;4.40;;;;;;;17.19;72.49;101010.59;5015988;28;20052;-75
2022/07/28 06:33:15;;;;;;;5.72;3.55;;;;;;;16.83;75.40;101003.75;5047942;28;20040;-76
2022/07/28 06:35:41;;;;;;;7.43;3.25;;;;;;;16.84;77.32;101010.88;5046019;28;20036;-76
2022/07/28 06:38:07;;;;;;;7.45;2.95;;;;;;;16.99;76.20;101013.34;5031062;28;20044;-76
2022/07/28 06:40:33;;;;;;;4.80;2.65;;;;;;;17.04;73.92;101008.09;5028160;28;20437;-76
2022/07/28 06:42:59;;;;;;;4.25;2.92;;;;;;;17.01;75.07;101009.38;5042071;28;20315;-75
2022/07/28 06:45:24;;;;;;;3.97;2.65;;;;;;;17.07;75.68;101013.97;5011399;28;20481;-75
2022/07/28 06:47:51;;;;;;;5.95;3.08;;;;;;;17.13;75.57;101021.25;5026856;28;20036;-75
2022/07/28 06:50:17;;;;;;;4.95;3.10;;;;;;;17.14;76.03;100998.47;5026262;28;20070;-76
2022/07/28 06:52:43;;;;;;;4.28;3.05;;;;;;;17.31;74.88;101011.63;5025529;28;20037;-75
2022/07/28 06:55:10;;;;;;;4.22;2.90;;;;;;;17.38;72.08;101026.00;5034577;28;20044;-77
2022/07/28 06:57:36;;;;;;;6.35;2.92;;;;;;;17.30;73.17;101012.63;5039646;28;20086;-75
2022/07/28 07:00:05;;;;;;;4.90;3.15;;;;;;;17.45;72.37;101023.25;5048454;28;20397;-75
2022/07/28 07:02:32;;;;;;;4.18;2.95;;;;;;;17.74;71.86;101014.56;5011870;28;20036;-76
2022/07/28 07:04:57;;;;;;;5.20;2.95;;;;;;;18.29;70.86;101030.38;5046623;28;20040;-76
2022/07/28 07:07:24;;;;;;;4.75;3.10;;;;;;;18.83;68.29;101020.72;5023185;28;20059;-75
2022/07/28 07:10:03;;;;;;;5.57;3.00;;;;;;;20.40;63.89;101027.38;5034002;28;20186;-77
2022/07/28 07:12:31;;;;;;;3.17;2.55;;;;;;;20.85;57.18;101024.13;5031859;28;20032;-75
2022/07/28 07:14:56;;;;;;;4.18;2.60;;;;;;;20.17;59.09;101031.75;5064238;28;20036;-75
2022/07/28 07:17:22;;;;;;;5.70;2.30;;;;;;;20.04;60.54;101025.66;5025700;28;20028;-75
2022/07/28 07:19:48;;;;;;;3.55;2.40;;;;;;;19.89;60.14;101024.16;5038092;28;20062;-76
2022/07/28 07:22:13;;;;;;;5.50;2.75;;;;;;;19.87;60.19;101020.84;5060378;28;20386;-75
2022/07/28 07:24:39;;;;;;;4.25;2.40;;;;;;;19.81;60.83;101026.38;5047736;28;20028;-76
2022/07/28 07:27:05;;;;;;;3.83;2.25;;;;;;;19.56;60.11;101027.31;5042597;28;20486;-75
2022/07/28 07:29:30;;;;;;;4.72;2.90;;;;;;;19.21;61.56;101018.88;5040666;28;20132;-76
2022/07/28 07:31:57;;;;;;;5.03;2.15;;;;;;;19.22;60.68;101015.94;5009962;28;20024;-76
2022/07/28 07:34:24;;;;;;;2.90;1.95;;;;;;;19.53;60.49;101028.59;5054288;28;20484;-76
2022/07/28 07:36:53;;;;;;;5.50;2.10;;;;;;;19.43;60.65;101024.72;5030151;28;20432;-75
2022/07/28 07:39:22;;;;;;;7.90;2.58;;;;;;;19.57;60.55;101034.41;5033217;28;20098;-76
2022/07/28 07:41:50;;;;;;;4.30;2.53;;;;;;;19.09;60.93;101027.00;5048516;28;20036;-75
2022/07/28 07:44:15;;;;;;;5.05;2.70;;;;;;;18.79;64.12;101035.88;5069195;28;20156;-75
2022/07/28 07:46:41;;;;;;;4.57;2.60;;;;;;;18.73;64.37;101022.28;5018295;28;20127;-76
2022/07/28 07:49:08;;;;;;;5.43;2.75;;;;;;;18.82;64.08;101027.25;5027672;28;20036;-77
2022/07/28 07:51:33;;;;;;;4.68;2.60;;;;;;;19.28;63.15;101030.56;5027256;28;20028;-79
2022/07/28 07:53:59;;;;;;;7.85;3.03;;;;;;;19.92;61.44;101029.16;5015603;28;20045;-80
2022/07/28 07:56:25;;;;;;;7.32;3.30;;;;;;;20.54;59.10;101028.88;5051293;28;20554;-78
2022/07/28 07:58:52;;;;;;;10.50;3.45;;;;;;;20.56;57.76;101026.75;5014973;28;20033;-78
2022/07/28 08:01:17;;;;;;;10.77;3.45;;;;;;;20.32;58.01;101025.84;5035360;28;20028;-79
2022/07/28 08:03:43;;;;;;;4.50;3.08;;;;;;;20.26;60.31;101023.22;5046085;28;20082;-79
2022/07/28 08:06:09;;;;;;;4.85;2.83;;;;;;;20.46;58.87;101031.94;5030111;28;20044;-79
2022/07/28 08:08:35;;;;;;;3.50;2.70;;;;;;;20.63;58.62;101029.38;5049351;28;20185;-78
2022/07/28 08:11:00;;;;;;;9.98;3.17;;;;;;;20.92;56.16;101033.06;5050692;28;20051;-78
2022/07/28 08:13:26;;;;;;;6.20;2.85;;;;;;;21.21;55.72;101034.00;5047649;28;20020;-78
2022/07/28 08:15:52;;;;;;;4.47;2.63;;;;;;;21.29;51.34;101019.13;5049957;28;20040;-79
2022/07/28 08:18:17;;;;;;;6.38;2.50;;;;;;;20.89;53.27;101011.69;5029688;28;20194;-78
2022/07/28 08:20:43;;;;;;;9.55;3.17;;;;;;;20.63;54.91;101002.88;5051379;28;20064;-77
2022/07/28 08:23:09;;;;;;;6.05;2.60;;;;;;;20.77;54.46;101017.16;5051955;28;20024;-78
2022/07/28 08:25:36;;;;;;;4.72;2.25;;;;;;;20.62;54.59;101017.63;5064178;28;20024;-80
2022/07/28 08:28:01;;;;;;;4.10;2.70;;;;;;;20.57;54.40;101017.50;5034029;28;20029;-77
2022/07/28 08:30:27;;;;;;;6.30;3.20;;;;;;;20.41;55.35;101018.97;5039156;28;20081;-77
2022/07/28 08:32:53;;;;;;;4.72;3.08;;;;;;;20.55;56.04;101026.97;5027934;28;20037;-78
2022/07/28 08:35:18;;;;;;;5.13;2.45;;;;;;;20.59;55.10;101023.56;5022330;28;20035;-77
2022/07/28 08:37:44;;;;;;;5.50;2.78;;;;;;;20.53;55.46;101027.19;5052928;28;20131;-77
2022/07/28 08:40:16;;;;;;;6.55;2.78;;;;;;;20.62;55.84;101027.72;5031611;28;20051;-77
2022/07/28 08:43:00;;;;;;;5.90;2.83;;;;;;;20.73;54.59;101023.31;5065511;28;20047;-76
2022/07/28 08:45:29;;;;;;;11.18;3.25;;;;;;;20.85;54.39;101022.25;5049239;28;20036;-77
2022/07/28 08:47:55;;;;;;;7.57;3.08;;;;;;;20.77;53.77;101025.34;5034985;28;20043;-77
2022/07/28 08:50:25;;;;;;;5.78;3.28;;;;;;;20.82;53.99;101032.81;5035987;28;20119;-78
2022/07/28 08:52:51;;;;;;;12.60;3.30;;;;;;;20.85;54.48;101024.13;5030118;28;20036;-76
2022/07/28 08:55:25;;;;;;;8.43;3.35;;;;;;;20.96;54.35;101027.97;5033463;28;20036;-76
2022/07/28 08:57:55;;;;;;;7.28;3.20;;;;;;;21.07;54.33;101033.41;5046259;28;20508;-77
2022/07/28 09:00:21;;;;;;;6.50;3.15;;;;;;;21.18;53.84;101026.28;5023108;28;20047;-78
2022/07/28 09:02:49;;;;;;;11.80;3.38;;;;;;;21.25;53.86;101020.69;5051425;28;20039;-78
2022/07/28 09:05:15;;;;;;;8.27;3.05;;;;;;;21.40;52.83;101023.75;5046992;28;20107;-76
2022/07/28 09:07:41;;;;;;;6.47;2.95;;;;;;;21.46;49.85;101020.09;5061731;28;20417;-76
2022/07/28 09:10:10;;;;;;;9.93;3.25;;;;;;;21.08;53.25;101028.78;5019151;28;20052;-76
2022/07/28 09:12:38;;;;;;;8.48;3.38;;;;;;;21.10;54.37;101028.56;5064309;28;20028;-76
2022/07/28 09:15:08;;;;;;;7.70;3.33;;;;;;;21.13;54.74;101014.41;5049036;28;20040;-77
2022/07/28 09:17:35;;;;;;;10.63;3.28;;;;;;;21.09;53.09;100997.66;5041942;28;20127;-75
2022/07/28 09:20:01;;;;;;;9.73;4.13;;;;;;;21.29;53.00;101021.84;5040908;28;20442;-75
2022/07/28 09:22:27;;;;;;;6.78;4.03;;;;;;;20.97;53.54;101035.09;5028024;28;20056;-82
2022/07/28 09:24:52;;;;;;;6.85;3.22;;;;;;;20.77;54.89;101028.09;5021960;28;20040;-78
2022/07/28 09:27:18;;;;;;;6.53;3.33;;;;;;;20.70;55.77;101029.25;5053388;28;20172;-83
2022/07/28 09:29:47;;;;;;;7.00;4.15;;;;;;;20.63;55.94;101024.72;5018346;28;20367;-79
2022/07/28 09:32:14;;;;;;;8.02;3.05;;;;;;;20.77;53.42;101019.03;5033159;28;20044;-79
2022/07/28 09:34:44;;;;;;;6.72;2.80;;;;;;;20.86;52.08;101026.66;5033755;28;20060;-82
2022/07/28 09:37:26;;;;;;;12.35;4.50;;;;;;;20.91;51.75;101027.84;5048845;28;20025;-80
2022/07/28 09:39:56;;;;;;;14.18;7.20;;;;;;;21.05;51.36;101026.53;5027676;28;20036;-80
2022/07/28 09:42:22;;;;;;;22.13;9.65;;;;;;;21.27;51.17;101027.56;5029555;28;20394;-83
2022/07/28 09:45:06;;;;;;;22.45;6.18;;;;;;;21.41;50.18;101019.16;5050137;28;20031;-81
2022/07/28 09:47:33;;;;;;;23.15;10.05;;;;;;;21.41;50.51;101019.97;5033267;28;20425;-80
2022/07/28 09:50:00;;;;;;;12.95;7.13;;;;;;;21.34;51.58;101008.28;5031996;28;20021;-81
2022/07/28 09:52:36;;;;;;;9.20;4.50;;;;;;;21.27;52.02;101024.00;5021057;28;20037;-79
2022/07/28 09:55:07;;;;;;;7.10;3.63;;;;;;;21.15;51.59;101017.72;5066372;28;20044;-81
2022/07/28 09:57:35;;;;;;;9.82;4.57;;;;;;;21.06;51.03;101007.16;5025383;28;20040;-84
2022/07/28 10:00:05;;;;;;;10.82;5.25;;;;;;;20.98;50.14;101014.88;5048454;28;20039;-85
2022/07/28 10:02:30;;;;;;;4.72;3.00;;;;;;;20.95;50.33;101010.72;5031868;28;20036;-85
2022/07/28 10:04:59;;;;;;;5.30;2.72;;;;;;;20.96;50.00;101012.41;5019903;28;20040;-81
2022/07/28 10:07:28;;;;;;;4.97;3.17;;;;;;;21.15;49.61;101007.63;5065213;28;20033;-82
2022/07/28 10:10:02;;;;;;;5.70;3.60;;;;;;;21.30;49.18;101013.41;5014045;28;20159;-84
2022/07/28 10:12:30;;;;;;;5.60;2.70;;;;;;;21.33;48.00;101000.31;5050814;28;20288;-81
2022/07/28 10:14:58;;;;;;;6.05;2.65;;;;;;;21.43;48.86;101001.38;5017138;28;20542;-83
2022/07/28 10:17:31;;;;;;;5.55;3.25;;;;;;;21.58;48.76;101006.34;5046880;28;20059;-84
2022/07/28 10:19:59;;;;;;;5.05;2.95;;;;;;;21.88;49.06;101006.09;5037999;28;20043;-84
2022/07/28 10:22:28;;;;;;;7.20;3.03;;;;;;;22.08;47.73;101002.09;5048723;28;20036;-81
2022/07/28 10:24:55;;;;;;;5.00;2.83;;;;;;;22.28;48.39;101010.72;5036897;28;20029;-80
2022/07/28 10:27:24;;;;;;;4.63;3.20;;;;;;;22.34;47.96;101017.94;5051246;28;20029;-81
2022/07/28 10:30:00;;;;;;;5.90;2.75;;;;;;;22.18;46.44;101013.25;5021335;28;20028;-83
2022/07/28 10:32:32;;;;;;;5.97;2.38;;;;;;;21.93;46.72;100989.78;5041525;28;20470;-79
2022/07/28 10:35:07;;;;;;;3.28;2.10;;;;;;;21.95;47.39;101022.41;5015738;28;20063;-81
2022/07/28 10:37:38;;;;;;;3.17;2.22;;;;;;;21.80;46.76;101011.16;5028696;28;20040;-83
2022/07/28 10:40:06;;;;;;;3.17;2.20;;;;;;;21.55;45.88;101008.75;5068113;28;20036;-81
2022/07/28 10:42:34;;;;;;;6.72;4.20;;;;;;;21.46;47.69;101022.81;5024429;28;20387;-84
2022/07/28 10:45:00;;;;;;;4.88;2.88;;;;;;;21.40;47.66;101023.75;5055495;28;20048;-81
2022/07/28 10:47:28;;;;;;;4.15;2.50;;;;;;;21.33;48.95;101019.47;5016757;28;20045;-81
2022/07/28 10:49:55;;;;;;;5.25;3.13;;;;;;;21.47;49.99;101021.72;5047722;28;20036;-82
2022/07/28 10:52:21;;;;;;;4.88;3.20;;;;;;;21.58;49.74;101021.94;5054738;28;20032;-82
2022/07/28 10:54:51;;;;;;;5.15;2.65;;;;;;;21.93;48.30;101013.59;5052056;28;20155;-82
2022/07/28 10:57:17;;;;;;;3.50;2.20;;;;;;;22.41;45.94;101019.66;5079483;28;20024;-81
2022/07/28 11:00:05;;;;;;;3.35;2.08;;;;;;;22.33;46.28;101005.31;5033704;28;20056;-80
2022/07/28 11:02:51;;;;;;;3.22;2.58;;;;;;;22.48;46.39;101018.44;5051674;28;20082;-88
2022/07/28 11:05:35;;;;;;;7.88;5.47;;;;;;;22.56;46.15;101028.16;5032976;28;20036;-85
2022/07/28 11:08:05;;;;;;;6.25;2.78;;;;;;;22.40;46.31;101010.63;5019184;28;20478;-82
2022/07/28 11:10:49;;;;;;;5.97;2.38;;;;;;;22.38;47.07;101034.69;5023179;28;20021;-83
2022/07/28 11:13:26;;;;;;;3.28;2.10;;;;;;;22.43;47.68;101026.56;5053008;28;20028;-83
2022/07/28 11:15:54;;;;;;;5.05;2.30;;;;;;;22.80;46.15;101028.81;5066928;28;20632;-85
2022/07/28 11:18:20;;;;;;;4.72;2.13;;;;;;;23.08;46.64;101022.41;5051306;28;20040;-82
2022/07/28 11:20:55;;;;;;;6.68;3.13;;;;;;;23.40;45.27;101035.47;5050166;28;20043;-79
2022/07/28 11:23:41;;;;;;;9.07;6.45;;;;;;;23.54;42.97;101030.41;5072304;28;20021;-83
2022/07/28 11:26:19;;;;;;;13.43;7.13;;;;;;;23.36;44.91;101026.06;5036271;28;20040;-81